Time;durP1;ratioP1;P1;durP2;ratioP2;P2;SDS_P1;SDS_P2;PMS_P1;PMS_P2;Temp;Humidity;BMP_temperature;BMP_pressure;BME280_temperature;BME280_humidity;BME280_pressure;Samples;Min_cycle;Max_cycle;Signal;HPM_P1;HPM_P2
2023/07/21 00:00:23;;;;;;;6.90;3.88;;;;;;;23.19;73.86;94657.31;5032449;28;20156;-78
2023/07/21 00:02:49;;;;;;;8.25;4.22;;;;;;;23.24;74.03;94662.63;5032149;28;20163;-78
2023/07/21 00:05:15;;;;;;;12.18;7.45;;;;;;;23.27;74.32;94658.53;5032140;28;20176;-78
2023/07/21 00:07:42;;;;;;;14.43;9.18;;;;;;;23.28;74.75;94662.81;5031863;28;20542;-78
2023/07/21 00:10:09;;;;;;;15.00;7.63;;;;;;;23.26;74.55;94670.41;5032383;28;20203;-79
2023/07/21 00:12:35;;;;;;;9.27;5.72;;;;;;;23.06;74.33;94644.66;5032111;28;20254;-78
2023/07/21 00:15:01;;;;;;;14.88;7.95;;;;;;;23.17;74.40;94651.47;5031746;28;20299;-78
2023/07/21 00:17:28;;;;;;;15.65;10.20;;;;;;;23.15;74.20;94639.44;5032324;28;20251;-78
2023/07/21 00:19:53;;;;;;;13.05;7.95;;;;;;;23.14;74.24;94645.88;5031968;28;20175;-78
2023/07/21 00:22:19;;;;;;;9.85;3.95;;;;;;;23.03;74.46;94633.72;5031958;28;20175;-78
2023/07/21 00:24:45;;;;;;;9.70;5.30;;;;;;;23.13;74.31;94649.66;5014145;28;20183;-78
2023/07/21 00:27:11;;;;;;;6.82;4.57;;;;;;;23.02;74.37;94638.28;5032324;28;20176;-78
2023/07/21 00:29:36;;;;;;;19.52;8.38;;;;;;;22.87;74.97;94623.22;5032380;28;20175;-78
2023/07/21 00:32:02;;;;;;;19.17;11.50;;;;;;;22.91;75.07;94634.97;5032083;28;20259;-78
2023/07/21 00:34:28;;;;;;;11.13;5.53;;;;;;;22.86;74.97;94634.25;5013336;28;20239;-78
2023/07/21 00:36:57;;;;;;;11.35;6.63;;;;;;;22.95;75.02;94645.91;5030277;28;20219;-78
2023/07/21 00:39:22;;;;;;;8.63;6.18;;;;;;;22.93;75.46;94650.78;5030563;28;20176;-78
2023/07/21 00:41:48;;;;;;;15.55;10.60;;;;;;;22.83;75.73;94634.84;5031278;28;20526;-78
2023/07/21 00:44:13;;;;;;;12.38;8.23;;;;;;;22.81;75.56;94655.81;5013595;28;20517;-78
2023/07/21 00:46:40;;;;;;;9.80;5.68;;;;;;;22.78;75.92;94649.13;5031320;28;20172;-79
2023/07/21 00:49:05;;;;;;;9.32;5.55;;;;;;;22.79;75.92;94645.38;5034228;28;20201;-78
2023/07/21 00:51:31;;;;;;;16.67;10.73;;;;;;;22.76;76.47;94635.19;5035571;28;20210;-78
2023/07/21 00:53:57;;;;;;;12.27;5.43;;;;;;;22.79;76.79;94640.00;5033897;28;20196;-78
2023/07/21 00:56:23;;;;;;;7.70;5.95;;;;;;;22.81;76.72;94627.09;5004115;28;20169;-78
2023/07/21 00:58:49;;;;;;;8.80;5.75;;;;;;;22.76;76.72;94616.41;5005184;28;20179;-78
2023/07/21 01:01:14;;;;;;;16.98;11.60;;;;;;;22.86;76.29;94621.63;5006973;28;20181;-78
2023/07/21 01:03:40;;;;;;;37.72;22.00;;;;;;;22.85;76.15;94609.28;4996754;28;20169;-78
2023/07/21 01:06:08;;;;;;;46.47;32.35;;;;;;;22.87;76.07;94615.16;4998319;28;20177;-78
2023/07/21 01:08:34;;;;;;;20.67;14.95;;;;;;;22.88;76.22;94608.72;5004430;28;20272;-78
2023/07/21 01:11:00;;;;;;;10.18;6.32;;;;;;;22.84;76.00;94606.88;5004125;28;20441;-78
2023/07/21 01:13:26;;;;;;;10.63;7.90;;;;;;;22.74;76.21;94574.84;5006541;28;20243;-79
2023/07/21 01:15:55;;;;;;;7.07;5.25;;;;;;;22.72;76.42;94583.19;5006458;28;20179;-78
2023/07/21 01:18:22;;;;;;;13.63;8.45;;;;;;;22.67;77.13;94588.59;4998958;28;20193;-78
2023/07/21 01:20:49;;;;;;;12.32;9.05;;;;;;;22.69;77.28;94591.00;4995770;28;20162;-78
2023/07/21 01:23:24;;;;;;;11.88;5.90;;;;;;;22.67;76.95;94588.59;4995757;28;20540;-78
2023/07/21 01:25:52;;;;;;;8.07;5.68;;;;;;;22.60;77.00;94590.88;4995380;28;20206;-78
2023/07/21 01:28:19;;;;;;;7.28;4.80;;;;;;;22.55;77.18;94593.66;4995233;28;20170;-78
2023/07/21 01:30:48;;;;;;;9.77;5.25;;;;;;;22.54;77.54;94592.06;4994973;28;20169;-78
2023/07/21 01:33:18;;;;;;;18.95;6.03;;;;;;;22.54;77.51;94598.22;4995277;28;20217;-78
2023/07/21 01:35:48;;;;;;;7.32;5.55;;;;;;;22.51;77.78;94596.09;4977397;28;20283;-78
2023/07/21 01:38:14;;;;;;;8.38;5.57;;;;;;;22.47;77.44;94588.94;4995281;28;20173;-78
2023/07/21 01:40:40;;;;;;;11.55;5.97;;;;;;;22.57;77.51;94607.56;4995135;28;20157;-79
2023/07/21 01:43:07;;;;;;;10.52;5.88;;;;;;;22.44;76.99;94603.72;4995101;28;20549;-78
2023/07/21 01:45:33;;;;;;;13.82;6.00;;;;;;;22.46;77.40;94620.34;4995090;28;20150;-78
2023/07/21 01:47:59;;;;;;;7.85;5.22;;;;;;;22.38;77.46;94620.19;4995204;28;20675;-78
2023/07/21 01:50:26;;;;;;;9.95;6.50;;;;;;;22.28;nan;94612.28;4994652;28;20204;-79
2023/07/21 01:52:52;;;;;;;8.25;5.45;;;;;;;22.42;77.44;94631.94;4995069;28;20180;-79
2023/07/21 01:55:28;;;;;;;10.85;6.05;;;;;;;22.32;77.79;94615.97;4994817;28;20256;-78
2023/07/21 01:57:58;;;;;;;8.50;6.13;;;;;;;22.40;77.46;94642.94;4994889;28;20163;-78
2023/07/21 02:00:28;;;;;;;12.50;6.72;;;;;;;22.35;77.72;94631.50;4993885;28;20173;-78
2023/07/21 02:02:55;;;;;;;9.15;4.90;;;;;;;22.41;77.83;94651.78;4994379;28;20181;-78
2023/07/21 02:05:22;;;;;;;10.40;6.18;;;;;;;22.40;77.91;94650.22;4994715;28;20252;-79
2023/07/21 02:07:47;;;;;;;8.02;6.35;;;;;;;22.44;78.41;94654.72;4994682;28;20212;-78
2023/07/21 02:10:13;;;;;;;16.10;11.48;;;;;;;22.44;78.07;94643.19;4994419;28;20196;-79
2023/07/21 02:12:39;;;;;;;14.43;10.68;;;;;;;22.39;77.68;94640.56;4994239;28;20545;-78
2023/07/21 02:15:08;;;;;;;12.48;9.88;;;;;;;22.43;77.80;94649.63;4994236;28;20282;-78
2023/07/21 02:17:33;;;;;;;12.93;8.95;;;;;;;22.43;77.64;94638.88;4994397;28;20324;-78
2023/07/21 02:19:59;;;;;;;14.75;8.15;;;;;;;22.45;77.81;94637.53;4994096;28;20641;-78
2023/07/21 02:22:24;;;;;;;11.15;8.50;;;;;;;22.49;77.73;94643.09;4976600;28;20252;-79
2023/07/21 02:24:52;;;;;;;9.60;7.00;;;;;;;22.54;77.52;94648.41;4994056;28;20157;-79
2023/07/21 02:27:17;;;;;;;9.82;6.53;;;;;;;22.48;76.98;94623.53;4994520;28;20178;-78
2023/07/21 02:29:49;;;;;;;10.65;5.68;;;;;;;22.43;77.16;94617.44;4994011;28;20539;-80
2023/07/21 02:32:14;;;;;;;11.07;6.10;;;;;;;22.54;77.11;94634.97;4994287;28;20180;-79
2023/07/21 02:34:41;;;;;;;10.90;6.45;;;;;;;22.54;77.06;94632.31;4993638;28;20229;-79
2023/07/21 02:37:07;;;;;;;7.40;5.35;;;;;;;22.52;76.77;94632.59;4994097;28;20173;-79
2023/07/21 02:39:32;;;;;;;6.65;5.05;;;;;;;22.50;77.01;94633.97;4976918;28;20263;-79
2023/07/21 02:41:59;;;;;;;9.00;5.68;;;;;;;22.54;77.10;94640.34;4994020;28;20165;-79
2023/07/21 02:44:24;;;;;;;6.22;4.88;;;;;;;22.53;76.86;94630.69;4993974;28;20571;-79
2023/07/21 02:46:50;;;;;;;8.93;5.43;;;;;;;22.50;77.01;94633.97;4993945;28;20165;-79
2023/07/21 02:49:16;;;;;;;9.73;5.35;;;;;;;22.45;77.14;94634.84;4993764;28;20208;-79
2023/07/21 02:51:42;;;;;;;11.07;4.90;;;;;;;22.44;77.51;94643.19;4993646;28;20158;-79
2023/07/21 02:54:07;;;;;;;12.95;4.97;;;;;;;22.40;77.47;94637.56;4993636;28;20254;-79
2023/07/21 02:56:34;;;;;;;9.18;5.38;;;;;;;22.35;77.81;94642.22;4993909;28;20197;-79
2023/07/21 02:59:00;;;;;;;11.02;4.88;;;;;;;22.24;77.93;94632.72;4993720;28;20169;-80
2023/07/21 03:01:26;;;;;;;8.98;4.65;;;;;;;22.20;78.52;94641.34;4993335;28;20169;-78
2023/07/21 03:03:54;;;;;;;8.35;4.43;;;;;;;22.20;78.39;94652.09;4993456;28;20169;-78
2023/07/21 03:06:20;;;;;;;7.93;4.35;;;;;;;22.13;78.48;94642.81;4993932;28;20204;-79
2023/07/21 03:08:46;;;;;;;8.70;4.35;;;;;;;21.99;78.79;94631.97;4993341;28;20173;-78
2023/07/21 03:11:13;;;;;;;10.98;5.13;;;;;;;21.98;78.74;94643.78;5016330;28;20176;-79
2023/07/21 03:13:38;;;;;;;12.18;5.30;;;;;;;21.98;79.25;94646.44;5020366;28;20658;-79
2023/07/21 03:16:04;;;;;;;13.40;5.47;;;;;;;21.99;79.39;94655.28;5017953;28;20422;-79
2023/07/21 03:18:29;;;;;;;10.15;5.45;;;;;;;21.94;79.07;94642.72;5027910;28;20176;-79
2023/07/21 03:21:00;;;;;;;14.50;5.32;;;;;;;22.03;78.99;94654.44;5032757;28;20156;-79
2023/07/21 03:23:26;;;;;;;13.98;5.30;;;;;;;22.04;78.70;94658.72;5028976;28;20164;-79
2023/07/21 03:25:51;;;;;;;13.27;5.25;;;;;;;21.97;78.67;94647.53;5022133;28;20647;-78
2023/07/21 03:28:17;;;;;;;10.68;5.10;;;;;;;22.02;79.41;94662.78;5027785;28;20183;-79
2023/07/21 03:30:43;;;;;;;11.10;5.55;;;;;;;21.97;79.56;94660.09;5032424;28;20176;-79
2023/07/21 03:33:08;;;;;;;10.48;5.70;;;;;;;21.90;79.50;94660.47;5008321;28;20713;-79
2023/07/21 03:35:34;;;;;;;14.02;5.53;;;;;;;21.89;79.07;94658.06;5020574;28;20388;-79
2023/07/21 03:38:00;;;;;;;10.65;5.38;;;;;;;21.89;79.32;94656.19;5021632;28;20175;-80
2023/07/21 03:40:25;;;;;;;15.68;5.57;;;;;;;22.00;79.21;94671.09;5025498;28;20647;-79
2023/07/21 03:42:52;;;;;;;13.13;4.80;;;;;;;21.90;78.86;94659.66;5025047;28;20526;-79
2023/07/21 03:45:17;;;;;;;6.50;4.55;;;;;;;21.98;79.06;94670.59;5026614;28;20184;-79
2023/07/21 03:47:42;;;;;;;7.55;4.88;;;;;;;21.95;79.00;94681.88;5024338;28;20178;-78
2023/07/21 03:50:08;;;;;;;10.60;6.05;;;;;;;21.98;78.89;94678.63;5029403;28;20636;-78
2023/07/21 03:52:34;;;;;;;14.38;5.30;;;;;;;21.77;79.34;94640.53;5022659;28;20212;-78
2023/07/21 03:54:59;;;;;;;9.65;4.97;;;;;;;22.06;78.62;94680.66;5014511;28;20678;-78
2023/07/21 03:57:25;;;;;;;6.68;4.65;;;;;;;22.02;78.77;94668.13;5020287;28;20598;-78
2023/07/21 03:59:51;;;;;;;10.90;5.07;;;;;;;22.10;78.94;94676.34;5017686;28;20611;-78
2023/07/21 04:02:17;;;;;;;13.45;5.13;;;;;;;22.22;78.90;94685.88;5022220;28;20199;-78
2023/07/21 04:04:44;;;;;;;18.98;5.57;;;;;;;22.28;78.39;94692.75;5021294;28;20175;-78
2023/07/21 04:07:10;;;;;;;8.27;5.35;;;;;;;22.32;78.39;94689.19;5030137;28;20168;-78
2023/07/21 04:09:36;;;;;;;7.85;4.65;;;;;;;22.40;78.15;94677.81;5022498;28;20255;-78
2023/07/21 04:12:03;;;;;;;7.93;4.43;;;;;;;22.44;77.41;94703.00;5019031;28;20219;-78
2023/07/21 04:14:28;;;;;;;10.27;4.97;;;;;;;22.47;77.65;94705.13;5025540;28;21031;-78
2023/07/21 04:16:54;;;;;;;9.07;4.45;;;;;;;22.42;76.83;94678.34;5029387;28;20175;-78
2023/07/21 04:19:20;;;;;;;14.80;5.85;;;;;;;22.69;77.50;94709.91;5031982;28;20168;-78
2023/07/21 04:21:46;;;;;;;12.30;5.28;;;;;;;22.90;76.61;94711.25;5022693;28;20180;-78
2023/07/21 04:24:11;;;;;;;8.27;5.30;;;;;;;23.05;75.41;94696.78;5023998;28;20251;-77
2023/07/21 04:26:37;;;;;;;8.70;4.97;;;;;;;23.36;74.59;94712.41;5025962;28;20278;-77
2023/07/21 04:29:03;;;;;;;11.43;5.07;;;;;;;23.50;73.74;94700.63;5017108;28;20187;-78
2023/07/21 04:31:28;;;;;;;8.88;4.32;;;;;;;23.59;72.55;94693.50;5017517;28;20305;-84
2023/07/21 04:33:57;;;;;;;9.20;5.65;;;;;;;23.64;72.65;94668.41;5026840;28;20238;-84
2023/07/21 04:36:23;;;;;;;8.38;5.72;;;;;;;24.11;71.79;94709.47;5017521;28;20169;-84
2023/07/21 04:38:48;;;;;;;14.50;9.35;;;;;;;24.33;70.98;94694.22;5021738;28;20176;-84
2023/07/21 04:41:14;;;;;;;14.52;8.35;;;;;;;24.62;69.39;94688.50;5022178;28;20185;-84
2023/07/21 04:43:40;;;;;;;7.88;4.82;;;;;;;25.02;67.93;94702.97;5035213;28;20249;-84
2023/07/21 04:46:05;;;;;;;11.88;4.78;;;;;;;25.44;67.41;94712.47;5027052;28;20188;-84
2023/07/21 04:48:31;;;;;;;26.17;11.98;;;;;;;25.75;66.43;94704.44;5020363;28;20211;-84
2023/07/21 04:50:57;;;;;;;8.85;4.90;;;;;;;25.90;65.28;94685.16;5026943;28;20288;-84
2023/07/21 04:53:23;;;;;;;7.75;5.30;;;;;;;26.50;64.30;94724.28;5009614;28;20238;-84
2023/07/21 04:55:49;;;;;;;9.35;5.78;;;;;;;26.68;62.72;94715.09;5032868;28;20678;-84
2023/07/21 04:58:14;;;;;;;17.88;10.02;;;;;;;27.05;62.00;94724.56;5020324;28;20282;-84
2023/07/21 05:00:40;;;;;;;25.08;15.73;;;;;;;27.25;60.59;94702.28;5014043;28;20202;-84
2023/07/21 05:03:05;;;;;;;16.80;6.75;;;;;;;27.77;58.69;94723.84;5015755;28;20191;-84
2023/07/21 05:05:33;;;;;;;10.68;5.03;;;;;;;27.83;58.31;94700.94;5034128;28;20167;-80
2023/07/21 05:07:59;;;;;;;13.98;5.90;;;;;;;28.21;57.59;94722.63;5032366;28;20160;-80
2023/07/21 05:10:25;;;;;;;11.57;6.43;;;;;;;28.64;56.07;94730.53;5015357;28;20160;-80
2023/07/21 05:12:51;;;;;;;12.07;4.70;;;;;;;28.93;55.23;94715.41;5017706;28;20238;-80
2023/07/21 05:15:16;;;;;;;11.95;5.43;;;;;;;29.44;53.88;94736.72;5028184;28;20206;-80
2023/07/21 05:17:41;;;;;;;8.15;4.85;;;;;;;29.77;53.03;94735.94;5034605;28;20611;-80
2023/07/21 05:20:07;;;;;;;8.27;5.40;;;;;;;30.09;52.05;94732.44;5017755;28;20187;-80
2023/07/21 05:22:33;;;;;;;10.38;4.90;;;;;;;30.47;52.76;94731.31;5024408;28;20168;-80
2023/07/21 05:24:59;;;;;;;9.60;4.47;;;;;;;30.84;51.20;94722.06;5020512;28;20188;-81
2023/07/21 05:27:24;;;;;;;10.90;5.50;;;;;;;31.30;49.46;94703.63;5034756;28;20172;-80
2023/07/21 05:29:50;;;;;;;7.68;4.85;;;;;;;31.95;48.23;94717.84;5016721;28;20178;-81
2023/07/21 05:32:15;;;;;;;8.63;4.38;;;;;;;32.51;47.32;94732.94;5034820;28;20176;-81
2023/07/21 05:34:42;;;;;;;5.40;3.25;;;;;;;33.18;45.97;94735.66;5031327;28;20228;-81
2023/07/21 05:37:08;;;;;;;8.18;4.45;;;;;;;33.53;44.84;94735.63;5023039;28;20550;-81
2023/07/21 05:39:35;;;;;;;8.52;4.28;;;;;;;34.05;42.96;94735.91;5031690;28;20176;-80
2023/07/21 05:42:00;;;;;;;8.63;3.85;;;;;;;34.36;41.88;94726.69;5029256;28;20529;-80
2023/07/21 05:44:26;;;;;;;7.65;3.42;;;;;;;34.49;41.95;94749.19;5029033;28;20179;-80
2023/07/21 05:46:52;;;;;;;6.60;3.13;;;;;;;34.55;42.20;94734.03;5024347;28;20262;-80
2023/07/21 05:49:18;;;;;;;7.50;4.13;;;;;;;34.79;41.70;94739.13;5029392;28;20231;-80
2023/07/21 05:51:44;;;;;;;6.15;3.90;;;;;;;34.80;42.09;94734.44;5034037;28;20176;-80
2023/07/21 05:54:09;;;;;;;11.65;4.20;;;;;;;34.81;41.22;94738.78;5033971;28;20801;-81
2023/07/21 05:56:36;;;;;;;6.75;4.05;;;;;;;34.90;41.77;94743.97;5034329;28;20183;-81
2023/07/21 05:59:01;;;;;;;10.07;6.20;;;;;;;34.85;41.39;94744.31;5034515;28;20532;-81
2023/07/21 06:01:27;;;;;;;11.50;5.88;;;;;;;35.00;41.26;94751.56;5033788;28;20239;-81
2023/07/21 06:03:53;;;;;;;14.43;6.07;;;;;;;35.41;41.40;94755.28;5033875;28;20171;-81
2023/07/21 06:06:18;;;;;;;9.60;5.43;;;;;;;35.39;40.55;94747.44;5034111;28;20267;-81
2023/07/21 06:08:43;;;;;;;10.55;4.38;;;;;;;35.49;40.75;94752.25;5033757;28;20164;-81
2023/07/21 06:11:09;;;;;;;7.63;4.60;;;;;;;35.22;41.45;94744.44;5033711;28;20163;-81
2023/07/21 06:13:35;;;;;;;5.78;4.35;;;;;;;35.01;41.37;94747.66;5033594;28;20639;-81
2023/07/21 06:16:00;;;;;;;7.70;3.85;;;;;;;34.93;41.65;94740.53;5033615;28;20163;-81
2023/07/21 06:18:26;;;;;;;6.65;3.58;;;;;;;34.62;41.46;94744.28;5033703;28;20160;-81
2023/07/21 06:20:52;;;;;;;7.38;3.92;;;;;;;34.05;42.46;94732.38;5033807;28;20164;-81
2023/07/21 06:23:18;;;;;;;6.97;3.80;;;;;;;33.60;42.98;94730.31;5033488;28;20164;-81
2023/07/21 06:25:45;;;;;;;11.85;4.68;;;;;;;33.25;43.64;94728.44;5004198;28;20235;-81
2023/07/21 06:28:11;;;;;;;7.50;3.50;;;;;;;33.17;45.02;94734.84;4994643;28;20161;-81
2023/07/21 06:30:36;;;;;;;11.85;3.83;;;;;;;32.96;43.84;94691.50;4993942;28;20537;-81
2023/07/21 06:33:05;;;;;;;11.55;4.07;;;;;;;32.90;44.52;94722.16;4997026;28;20649;-81
2023/07/21 06:35:31;;;;;;;7.50;4.15;;;;;;;32.63;45.99;94723.84;5013360;28;20199;-80
2023/07/21 06:37:57;;;;;;;7.90;3.78;;;;;;;32.72;46.62;94721.75;5013685;28;20172;-81
2023/07/21 06:40:23;;;;;;;11.45;5.57;;;;;;;32.80;47.22;94717.25;5013624;28;20200;-80
2023/07/21 06:42:49;;;;;;;14.25;5.85;;;;;;;32.95;45.82;94714.47;5013533;28;20173;-81
2023/07/21 06:45:15;;;;;;;5.00;3.25;;;;;;;33.09;44.65;94716.75;5013180;28;20196;-81
2023/07/21 06:47:40;;;;;;;9.57;5.82;;;;;;;33.19;45.43;94704.47;5013127;28;20184;-81
2023/07/21 06:50:06;;;;;;;12.45;6.22;;;;;;;33.31;44.39;94724.25;4994883;28;20187;-80
2023/07/21 06:52:31;;;;;;;7.60;3.58;;;;;;;33.28;45.40;94730.44;5013064;28;20271;-80
2023/07/21 06:54:58;;;;;;;8.52;3.45;;;;;;;32.90;46.84;94730.34;5013085;28;20203;-80
2023/07/21 06:57:24;;;;;;;7.68;4.63;;;;;;;32.88;45.52;94727.19;5013394;28;20180;-79
2023/07/21 06:59:49;;;;;;;9.65;4.35;;;;;;;32.82;45.63;94718.50;5013215;28;20161;-80
2023/07/21 07:02:15;;;;;;;6.80;4.05;;;;;;;32.91;47.35;94729.22;5012845;28;20263;-79
2023/07/21 07:04:41;;;;;;;6.30;3.90;;;;;;;33.08;46.85;94723.34;5012732;28;20183;-79
2023/07/21 07:07:06;;;;;;;5.75;3.30;;;;;;;32.77;44.39;94707.06;5012803;28;20759;-79
2023/07/21 07:09:32;;;;;;;8.60;3.95;;;;;;;32.82;44.85;94721.22;5012746;28;20637;-78
2023/07/21 07:11:57;;;;;;;8.90;3.95;;;;;;;32.58;45.53;94724.13;5012411;28;20214;-78
2023/07/21 07:14:23;;;;;;;12.68;3.80;;;;;;;32.46;45.03;94727.75;5012465;28;20199;-78
2023/07/21 07:16:48;;;;;;;8.10;4.10;;;;;;;32.77;45.79;94726.16;4995302;28;20215;-78
2023/07/21 07:19:14;;;;;;;6.35;3.67;;;;;;;33.04;45.42;94722.47;5012427;28;20184;-78
2023/07/21 07:21:40;;;;;;;7.13;3.88;;;;;;;33.32;45.74;94719.59;5012660;28;20254;-79
2023/07/21 07:24:05;;;;;;;10.45;4.50;;;;;;;33.57;44.41;94704.50;4994334;28;20181;-78
2023/07/21 07:26:31;;;;;;;6.63;3.50;;;;;;;33.93;43.33;94722.38;5012654;28;20254;-78
2023/07/21 07:28:57;;;;;;;5.43;3.17;;;;;;;33.94;42.41;94723.19;5012045;28;20207;-78
2023/07/21 07:31:22;;;;;;;7.00;3.63;;;;;;;34.16;42.27;94716.97;5012550;28;20192;-77
2023/07/21 07:33:48;;;;;;;12.13;4.22;;;;;;;34.31;42.17;94723.47;5009434;28;20238;-77
2023/07/21 07:36:13;;;;;;;6.28;3.88;;;;;;;34.40;42.51;94699.41;5012839;28;20188;-80
2023/07/21 07:38:39;;;;;;;5.55;4.00;;;;;;;34.39;40.73;94715.03;5004902;28;20184;-79
2023/07/21 07:41:08;;;;;;;8.82;3.80;;;;;;;34.19;40.00;94707.22;5032034;28;20196;-80
2023/07/21 07:43:34;;;;;;;8.60;3.67;;;;;;;34.10;41.80;94710.19;5027769;28;20347;-79
2023/07/21 07:46:00;;;;;;;6.30;3.72;;;;;;;34.42;42.83;94711.53;5014043;28;20187;-79
2023/07/21 07:48:25;;;;;;;4.88;3.45;;;;;;;34.56;40.31;94713.72;5014039;28;20198;-79
2023/07/21 07:50:54;;;;;;;7.35;3.85;;;;;;;34.57;40.83;94711.78;5011913;28;20258;-78
2023/07/21 07:53:21;;;;;;;6.40;3.38;;;;;;;34.64;40.46;94712.69;5012197;28;20157;-80
2023/07/21 07:55:47;;;;;;;7.93;3.78;;;;;;;34.53;39.47;94698.03;5012208;28;20216;-80
2023/07/21 07:58:12;;;;;;;8.68;3.35;;;;;;;34.73;41.34;94702.31;5013862;28;20203;-80
2023/07/21 08:00:41;;;;;;;11.13;4.18;;;;;;;34.76;37.85;94715.25;5014879;28;20215;-80
2023/07/21 08:03:09;;;;;;;5.35;3.38;;;;;;;34.77;39.69;94713.28;5016167;28;20176;-80
2023/07/21 08:05:36;;;;;;;8.90;3.67;;;;;;;34.87;39.00;94720.06;5016579;28;20234;-80
2023/07/21 08:08:02;;;;;;;7.53;3.95;;;;;;;34.81;39.00;94712.19;5016635;28;20261;-81
2023/07/21 08:10:28;;;;;;;7.30;3.83;;;;;;;34.20;39.00;94706.06;5016115;28;20184;-81
2023/07/21 08:12:58;;;;;;;18.75;3.33;;;;;;;33.52;39.02;94687.63;5015873;28;20188;-79
2023/07/21 08:15:24;;;;;;;6.65;4.40;;;;;;;33.38;38.48;94709.97;5016135;28;20197;-79
2023/07/21 08:17:50;;;;;;;7.40;3.83;;;;;;;33.35;41.23;94707.97;5016166;28;20631;-79
2023/07/21 08:20:18;;;;;;;5.82;3.85;;;;;;;33.48;40.18;94717.56;4998191;28;20195;-82
2023/07/21 08:22:47;;;;;;;6.15;3.30;;;;;;;33.54;39.30;94705.25;5016043;28;20168;-83
2023/07/21 08:25:13;;;;;;;8.43;3.95;;;;;;;33.69;39.15;94707.09;5030298;28;20180;-84
2023/07/21 08:27:39;;;;;;;7.65;3.97;;;;;;;34.18;40.08;94709.16;5035312;28;20182;-83
2023/07/21 08:30:08;;;;;;;8.05;3.63;;;;;;;34.22;37.83;94695.56;5034953;28;20160;-83
2023/07/21 08:32:33;;;;;;;5.93;3.53;;;;;;;34.19;38.33;94677.16;5016048;28;20172;-81
2023/07/21 08:34:59;;;;;;;8.75;3.80;;;;;;;34.49;37.61;94704.63;5016450;28;20243;-82
2023/07/21 08:37:24;;;;;;;10.02;4.35;;;;;;;34.66;36.54;94685.75;4999386;28;20184;-83
2023/07/21 08:39:49;;;;;;;7.53;3.85;;;;;;;34.92;37.37;94706.88;5015631;28;20169;-83
2023/07/21 08:42:15;;;;;;;7.40;3.38;;;;;;;35.05;36.92;94701.97;5015613;28;20195;-84
2023/07/21 08:44:41;;;;;;;15.88;12.02;;;;;;;35.27;36.79;94709.34;5015515;28;20160;-84
2023/07/21 08:47:07;;;;;;;5.22;3.80;;;;;;;35.00;35.54;94702.28;5019564;28;20172;-84
2023/07/21 08:49:33;;;;;;;11.55;4.70;;;;;;;34.53;36.91;94702.72;5025824;28;20184;-84
2023/07/21 08:51:58;;;;;;;11.65;4.20;;;;;;;34.24;37.83;94705.00;5029433;28;20175;-84
2023/07/21 08:54:24;;;;;;;11.20;3.42;;;;;;;33.99;37.47;94682.66;5016430;28;20237;-83
2023/07/21 08:56:50;;;;;;;21.85;4.88;;;;;;;34.20;38.45;94698.66;5029854;28;20179;-81
2023/07/21 08:59:18;;;;;;;10.05;4.00;;;;;;;34.21;39.43;94674.84;5017391;28;20655;-82
2023/07/21 09:01:43;;;;;;;7.95;5.70;;;;;;;34.64;37.98;94699.00;5032988;28;20258;-84
2023/07/21 09:04:25;;;;;;;5.75;3.90;;;;;;;34.94;38.39;94701.03;5015279;28;20256;-83
2023/07/21 09:06:56;;;;;;;6.20;3.97;;;;;;;34.94;38.44;94679.16;5015461;28;20259;-85
2023/07/21 09:09:22;;;;;;;13.18;3.97;;;;;;;35.30;38.63;94707.78;5014612;28;20251;-80
2023/07/21 09:11:49;;;;;;;8.27;4.25;;;;;;;35.46;38.44;94700.19;5014830;28;20168;-83
2023/07/21 09:14:16;;;;;;;8.07;3.92;;;;;;;35.41;36.05;94714.19;5019171;28;20736;-84
2023/07/21 09:16:42;;;;;;;8.75;5.82;;;;;;;35.13;37.50;94679.78;4996389;28;20245;-83
2023/07/21 09:19:09;;;;;;;10.88;4.10;;;;;;;35.34;37.94;94692.22;5014715;28;20640;-83
2023/07/21 09:21:36;;;;;;;6.57;4.68;;;;;;;35.37;37.39;94688.72;5014583;28;20267;-83
2023/07/21 09:24:03;;;;;;;8.00;4.50;;;;;;;35.38;37.30;94693.81;5014757;28;20159;-83
2023/07/21 09:26:28;;;;;;;6.32;3.67;;;;;;;34.94;37.64;94663.50;5014533;28;20187;-82
2023/07/21 09:28:54;;;;;;;7.40;4.28;;;;;;;34.96;37.13;94679.53;5014733;28;20161;-81
2023/07/21 09:31:33;;;;;;;11.18;5.35;;;;;;;34.64;37.43;94674.38;5014746;28;20623;-81
2023/07/21 09:34:11;;;;;;;6.95;4.25;;;;;;;34.45;38.91;94674.47;5014526;28;20259;-81
2023/07/21 09:36:44;;;;;;;6.65;3.60;;;;;;;34.20;39.08;94684.19;5014833;28;20165;-81
2023/07/21 09:39:14;;;;;;;9.73;3.80;;;;;;;33.64;38.26;94676.56;5014588;28;20168;-83
2023/07/21 09:41:40;;;;;;;8.27;4.25;;;;;;;33.25;39.89;94652.00;5014511;28;20248;-82
2023/07/21 09:44:06;;;;;;;9.48;4.00;;;;;;;33.39;41.43;94665.13;5014776;28;20251;-82
2023/07/21 09:46:33;;;;;;;16.05;4.75;;;;;;;33.34;39.02;94662.69;5023067;28;20175;-81
2023/07/21 09:48:58;;;;;;;21.42;4.65;;;;;;;33.16;39.73;94639.69;5022969;28;20258;-81
2023/07/21 09:51:26;;;;;;;8.75;4.88;;;;;;;33.40;41.07;94650.31;5023031;28;20259;-81
2023/07/21 09:53:53;;;;;;;11.77;4.15;;;;;;;33.78;39.83;94652.25;5023159;28;20181;-81
2023/07/21 09:56:21;;;;;;;9.63;3.78;;;;;;;33.96;39.46;94649.81;5022104;28;20195;-80
2023/07/21 09:59:00;;;;;;;8.50;4.15;;;;;;;33.69;38.60;94647.00;5019655;28;20184;-80
2023/07/21 10:01:26;;;;;;;15.27;3.95;;;;;;;33.61;39.15;94652.69;5027741;28;20191;-80
2023/07/21 10:03:52;;;;;;;13.60;4.57;;;;;;;33.62;39.27;94657.00;5023990;28;20184;-83
2023/07/21 10:06:19;;;;;;;8.52;4.15;;;;;;;33.70;38.71;94653.25;5022968;28;20187;-81
2023/07/21 10:08:45;;;;;;;10.50;3.65;;;;;;;33.43;38.24;94648.81;5023217;28;20180;-87
2023/07/21 10:11:12;;;;;;;9.43;3.97;;;;;;;33.46;39.72;94653.56;5022042;28;20241;-88
2023/07/21 10:13:46;;;;;;;9.60;4.32;;;;;;;33.45;39.40;94663.72;5004792;28;20179;-84
2023/07/21 10:16:15;;;;;;;11.93;4.05;;;;;;;33.37;38.98;94648.34;5013876;28;20157;-83
2023/07/21 10:18:59;;;;;;;14.88;5.60;;;;;;;33.23;40.50;94653.50;5021158;28;20176;-86
2023/07/21 10:21:46;;;;;;;14.52;4.68;;;;;;;33.20;41.33;94640.56;5012849;28;20153;-82
2023/07/21 10:24:22;;;;;;;8.93;4.25;;;;;;;33.32;41.12;94633.03;5013525;28;20152;-83
2023/07/21 10:26:53;;;;;;;11.60;3.92;;;;;;;33.57;39.94;94657.28;5013454;28;20167;-80
2023/07/21 10:29:18;;;;;;;11.52;3.85;;;;;;;33.21;38.71;94631.22;5013623;28;20160;-81
2023/07/21 10:31:52;;;;;;;10.43;4.15;;;;;;;33.28;41.33;94639.56;5013574;28;20226;-85
2023/07/21 10:34:18;;;;;;;7.88;3.92;;;;;;;33.26;38.82;94630.94;5012519;28;20239;-88
2023/07/21 10:36:47;;;;;;;11.30;4.72;;;;;;;33.34;39.77;94643.59;5013324;28;20199;-85
2023/07/21 10:39:20;;;;;;;9.82;4.20;;;;;;;33.29;42.47;94622.84;4995597;28;20210;-87
2023/07/21 10:41:50;;;;;;;13.60;4.53;;;;;;;33.46;42.54;94629.00;5012960;28;20354;-85
2023/07/21 10:44:16;;;;;;;9.55;4.70;;;;;;;33.57;41.47;94622.56;5013271;28;20157;-85
2023/07/21 10:46:47;;;;;;;13.48;4.40;;;;;;;33.68;41.55;94628.22;5013415;28;20529;-85
2023/07/21 10:49:15;;;;;;;9.38;4.43;;;;;;;33.45;42.01;94584.53;5012992;28;20726;-85
2023/07/21 10:51:42;;;;;;;8.45;4.38;;;;;;;33.78;40.37;94627.66;5011522;28;20734;-87
2023/07/21 10:54:09;;;;;;;10.18;5.55;;;;;;;33.71;41.37;94617.38;5012797;28;20307;-82
2023/07/21 10:56:48;;;;;;;15.50;4.47;;;;;;;33.91;42.20;94631.78;5011858;28;20562;-87
2023/07/21 10:59:15;;;;;;;10.90;4.57;;;;;;;33.95;41.10;94629.13;5012836;28;20167;-88
2023/07/21 11:01:49;;;;;;;9.07;4.03;;;;;;;34.01;39.21;94630.38;5012870;28;20624;-86
2023/07/21 11:04:16;;;;;;;14.00;4.50;;;;;;;33.94;41.14;94609.19;4995421;28;20630;-86
2023/07/21 11:06:43;;;;;;;15.52;4.75;;;;;;;34.12;41.18;94619.63;5012946;28;20167;-88
2023/07/21 11:09:11;;;;;;;6.28;4.20;;;;;;;33.82;39.96;94568.38;5012746;28;20850;-85
2023/07/21 11:11:42;;;;;;;10.65;5.03;;;;;;;34.00;38.86;94606.94;5012745;28;20180;-88
2023/07/21 11:14:16;;;;;;;13.05;4.40;;;;;;;33.84;39.89;94598.09;5011313;28;20878;-87
2023/07/21 11:16:51;;;;;;;9.30;4.15;;;;;;;33.54;38.04;94598.72;4993108;28;20255;-91
2023/07/21 11:19:17;;;;;;;8.18;3.80;;;;;;;33.30;39.01;94602.56;4992798;28;20184;-87
2023/07/21 11:21:42;;;;;;;11.07;4.80;;;;;;;32.94;39.05;94611.97;4993197;28;20153;-88
2023/07/21 11:24:08;;;;;;;15.07;5.55;;;;;;;32.80;39.23;94589.06;4991687;28;20173;-85
2023/07/21 11:26:38;;;;;;;9.95;4.00;;;;;;;33.00;40.63;94612.47;4991788;28;20169;-87